sensor_id;sensor_type;location;lat;lon;timestamp;P1;durP1;ratioP1;P2;durP2;ratioP2
44434;SDS011;30138;20.964;105.830;2022-08-02T00:04:30;26.35;;;20.15;;
44434;SDS011;30138;20.964;105.830;2022-08-02T00:09:38;24.25;;;19.75;;
44434;SDS011;30138;20.964;105.830;2022-08-02T00:14:47;26.98;;;20.42;;
44434;SDS011;30138;20.964;105.830;2022-08-02T00:19:57;24.25;;;19.75;;
44434;SDS011;30138;20.964;105.830;2022-08-02T00:25:04;25.67;;;19.75;;
44434;SDS011;30138;20.964;105.830;2022-08-02T00:30:17;24.58;;;18.55;;
44434;SDS011;30138;20.964;105.830;2022-08-02T00:35:26;22.35;;;18.63;;
44434;SDS011;30138;20.964;105.830;2022-08-02T00:40:33;23.13;;;19.38;;
44434;SDS011;30138;20.964;105.830;2022-08-02T00:45:43;23.17;;;19.27;;
44434;SDS011;30138;20.964;105.830;2022-08-02T00:50:51;25.45;;;18.58;;
44434;SDS011;30138;20.964;105.830;2022-08-02T00:55:59;20.60;;;17.98;;
44434;SDS011;30138;20.964;105.830;2022-08-02T01:01:09;20.88;;;17.42;;
44434;SDS011;30138;20.964;105.830;2022-08-02T01:06:16;20.15;;;17.92;;
44434;SDS011;30138;20.964;105.830;2022-08-02T01:11:25;20.77;;;17.05;;
44434;SDS011;30138;20.964;105.830;2022-08-02T01:16:35;22.70;;;18.08;;
44434;SDS011;30138;20.964;105.830;2022-08-02T01:21:55;20.40;;;18.20;;
44434;SDS011;30138;20.964;105.830;2022-08-02T01:27:42;21.73;;;17.70;;
44434;SDS011;30138;20.964;105.830;2022-08-02T01:38:41;22.48;;;18.23;;
44434;SDS011;30138;20.964;105.830;2022-08-02T01:43:54;21.25;;;18.10;;
44434;SDS011;30138;20.964;105.830;2022-08-02T01:49:06;24.65;;;20.60;;
44434;SDS011;30138;20.964;105.830;2022-08-02T01:54:19;21.75;;;18.77;;
44434;SDS011;30138;20.964;105.830;2022-08-02T01:59:30;25.37;;;20.40;;
44434;SDS011;30138;20.964;105.830;2022-08-02T02:04:41;28.58;;;21.45;;
44434;SDS011;30138;20.964;105.830;2022-08-02T02:14:59;26.52;;;20.80;;
44434;SDS011;30138;20.964;105.830;2022-08-02T02:20:12;26.77;;;22.98;;
44434;SDS011;30138;20.964;105.830;2022-08-02T02:25:22;28.85;;;22.63;;
44434;SDS011;30138;20.964;105.830;2022-08-02T02:30:31;27.45;;;23.40;;
44434;SDS011;30138;20.964;105.830;2022-08-02T02:35:42;25.40;;;21.95;;
44434;SDS011;30138;20.964;105.830;2022-08-02T02:40:55;27.33;;;21.95;;
44434;SDS011;30138;20.964;105.830;2022-08-02T02:46:06;30.98;;;25.38;;
44434;SDS011;30138;20.964;105.830;2022-08-02T02:51:21;31.83;;;27.40;;
44434;SDS011;30138;20.964;105.830;2022-08-02T02:56:29;29.43;;;25.67;;
44434;SDS011;30138;20.964;105.830;2022-08-02T03:01:37;29.08;;;25.95;;
44434;SDS011;30138;20.964;105.830;2022-08-02T03:06:47;28.30;;;23.17;;
44434;SDS011;30138;20.964;105.830;2022-08-02T03:11:55;29.88;;;24.17;;
44434;SDS011;30138;20.964;105.830;2022-08-02T03:17:04;26.70;;;23.90;;
44434;SDS011;30138;20.964;105.830;2022-08-02T03:22:13;31.42;;;25.13;;
44434;SDS011;30138;20.964;105.830;2022-08-02T03:27:21;27.77;;;24.38;;
44434;SDS011;30138;20.964;105.830;2022-08-02T03:32:28;33.15;;;26.05;;
44434;SDS011;30138;20.964;105.830;2022-08-02T03:37:38;27.98;;;25.00;;
44434;SDS011;30138;20.964;105.830;2022-08-02T03:42:47;30.80;;;26.50;;
44434;SDS011;30138;20.964;105.830;2022-08-02T03:47:55;30.10;;;26.58;;
44434;SDS011;30138;20.964;105.830;2022-08-02T03:53:07;33.40;;;28.10;;
44434;SDS011;30138;20.964;105.830;2022-08-02T03:58:17;30.73;;;27.25;;
44434;SDS011;30138;20.964;105.830;2022-08-02T04:03:25;32.38;;;28.88;;
44434;SDS011;30138;20.964;105.830;2022-08-02T04:08:34;33.38;;;29.10;;
44434;SDS011;30138;20.964;105.830;2022-08-02T04:13:42;35.97;;;31.63;;
44434;SDS011;30138;20.964;105.830;2022-08-02T04:18:52;35.38;;;30.90;;
44434;SDS011;30138;20.964;105.830;2022-08-02T04:24:06;38.30;;;30.60;;
44434;SDS011;30138;20.964;105.830;2022-08-02T04:29:15;37.10;;;33.03;;
44434;SDS011;30138;20.964;105.830;2022-08-02T04:34:23;40.22;;;34.85;;
44434;SDS011;30138;20.964;105.830;2022-08-02T04:39:33;39.70;;;33.22;;
44434;SDS011;30138;20.964;105.830;2022-08-02T04:44:41;37.25;;;32.38;;
44434;SDS011;30138;20.964;105.830;2022-08-02T04:49:48;36.60;;;32.70;;
44434;SDS011;30138;20.964;105.830;2022-08-02T04:54:58;38.97;;;32.58;;
44434;SDS011;30138;20.964;105.830;2022-08-02T05:00:07;36.00;;;32.17;;
44434;SDS011;30138;20.964;105.830;2022-08-02T05:05:17;36.38;;;32.50;;
44434;SDS011;30138;20.964;105.830;2022-08-02T05:10:26;37.35;;;33.30;;
44434;SDS011;30138;20.964;105.830;2022-08-02T05:15:34;40.50;;;34.75;;
44434;SDS011;30138;20.964;105.830;2022-08-02T05:20:42;39.65;;;33.78;;
44434;SDS011;30138;20.964;105.830;2022-08-02T05:25:51;36.72;;;32.95;;
44434;SDS011;30138;20.964;105.830;2022-08-02T05:31:00;37.57;;;32.60;;
44434;SDS011;30138;20.964;105.830;2022-08-02T05:36:07;35.13;;;31.33;;
44434;SDS011;30138;20.964;105.830;2022-08-02T05:41:17;33.33;;;29.67;;
44434;SDS011;30138;20.964;105.830;2022-08-02T05:46:25;32.55;;;29.17;;
44434;SDS011;30138;20.964;105.830;2022-08-02T05:51:35;33.63;;;30.00;;
44434;SDS011;30138;20.964;105.830;2022-08-02T05:56:49;31.92;;;28.80;;
44434;SDS011;30138;20.964;105.830;2022-08-02T06:02:09;31.65;;;28.45;;
44434;SDS011;30138;20.964;105.830;2022-08-02T06:07:29;31.67;;;28.42;;
44434;SDS011;30138;20.964;105.830;2022-08-02T06:12:47;30.98;;;27.80;;
44434;SDS011;30138;20.964;105.830;2022-08-02T06:17:58;30.52;;;27.38;;
44434;SDS011;30138;20.964;105.830;2022-08-02T06:23:08;30.23;;;26.90;;
44434;SDS011;30138;20.964;105.830;2022-08-02T06:28:19;29.52;;;26.50;;
44434;SDS011;30138;20.964;105.830;2022-08-02T06:33:28;29.42;;;26.50;;
44434;SDS011;30138;20.964;105.830;2022-08-02T06:38:38;29.48;;;26.48;;
44434;SDS011;30138;20.964;105.830;2022-08-02T06:43:52;28.67;;;25.90;;
44434;SDS011;30138;20.964;105.830;2022-08-02T06:49:03;27.67;;;24.83;;
44434;SDS011;30138;20.964;105.830;2022-08-02T06:54:10;26.58;;;23.90;;
44434;SDS011;30138;20.964;105.830;2022-08-02T06:59:24;27.40;;;24.60;;
44434;SDS011;30138;20.964;105.830;2022-08-02T07:04:33;27.57;;;24.87;;
44434;SDS011;30138;20.964;105.830;2022-08-02T07:09:41;27.63;;;24.83;;
44434;SDS011;30138;20.964;105.830;2022-08-02T07:14:50;26.80;;;24.20;;
44434;SDS011;30138;20.964;105.830;2022-08-02T07:19:58;25.45;;;22.90;;
44434;SDS011;30138;20.964;105.830;2022-08-02T07:25:07;26.23;;;23.48;;
44434;SDS011;30138;20.964;105.830;2022-08-02T07:30:17;25.33;;;22.77;;
44434;SDS011;30138;20.964;105.830;2022-08-02T07:35:24;24.55;;;22.05;;
44434;SDS011;30138;20.964;105.830;2022-08-02T07:40:32;25.63;;;23.08;;
44434;SDS011;30138;20.964;105.830;2022-08-02T07:45:42;24.98;;;22.40;;
44434;SDS011;30138;20.964;105.830;2022-08-02T07:50:49;23.08;;;20.80;;
44434;SDS011;30138;20.964;105.830;2022-08-02T07:55:57;24.50;;;22.02;;
44434;SDS011;30138;20.964;105.830;2022-08-02T08:01:06;23.33;;;21.05;;
44434;SDS011;30138;20.964;105.830;2022-08-02T08:06:14;23.20;;;20.80;;
44434;SDS011;30138;20.964;105.830;2022-08-02T08:11:22;22.80;;;20.65;;
44434;SDS011;30138;20.964;105.830;2022-08-02T08:16:33;22.52;;;20.33;;
44434;SDS011;30138;20.964;105.830;2022-08-02T08:21:41;22.80;;;20.60;;
44434;SDS011;30138;20.964;105.830;2022-08-02T08:26:51;23.53;;;21.13;;
44434;SDS011;30138;20.964;105.830;2022-08-02T08:32:01;21.88;;;19.80;;
44434;SDS011;30138;20.964;105.830;2022-08-02T08:37:09;21.47;;;19.33;;
44434;SDS011;30138;20.964;105.830;2022-08-02T08:42:16;20.60;;;18.45;;
44434;SDS011;30138;20.964;105.830;2022-08-02T08:47:30;22.55;;;20.33;;
44434;SDS011;30138;20.964;105.830;2022-08-02T08:52:40;20.42;;;18.48;;
44434;SDS011;30138;20.964;105.830;2022-08-02T08:57:56;20.40;;;18.45;;
44434;SDS011;30138;20.964;105.830;2022-08-02T09:03:08;20.88;;;18.85;;
44434;SDS011;30138;20.964;105.830;2022-08-02T09:08:16;20.42;;;18.52;;
44434;SDS011;30138;20.964;105.830;2022-08-02T09:13:24;20.65;;;18.65;;
44434;SDS011;30138;20.964;105.830;2022-08-02T09:18:35;20.75;;;18.65;;
44434;SDS011;30138;20.964;105.830;2022-08-02T09:23:45;20.33;;;18.30;;
44434;SDS011;30138;20.964;105.830;2022-08-02T09:29:00;19.83;;;17.85;;
44434;SDS011;30138;20.964;105.830;2022-08-02T09:34:10;20.08;;;18.15;;
44434;SDS011;30138;20.964;105.830;2022-08-02T09:39:18;20.93;;;19.00;;
44434;SDS011;30138;20.964;105.830;2022-08-02T09:44:27;20.48;;;18.48;;
44434;SDS011;30138;20.964;105.830;2022-08-02T09:49:38;20.48;;;18.40;;
44434;SDS011;30138;20.964;105.830;2022-08-02T09:54:52;20.42;;;18.33;;
44434;SDS011;30138;20.964;105.830;2022-08-02T10:00:01;19.65;;;17.73;;
44434;SDS011;30138;20.964;105.830;2022-08-02T10:05:16;20.30;;;18.40;;
44434;SDS011;30138;20.964;105.830;2022-08-02T10:10:25;20.42;;;18.15;;
44434;SDS011;30138;20.964;105.830;2022-08-02T10:15:32;19.33;;;17.42;;
44434;SDS011;30138;20.964;105.830;2022-08-02T10:20:44;19.83;;;18.00;;
44434;SDS011;30138;20.964;105.830;2022-08-02T10:25:54;19.45;;;17.48;;
44434;SDS011;30138;20.964;105.830;2022-08-02T10:36:14;19.45;;;17.55;;
44434;SDS011;30138;20.964;105.830;2022-08-02T10:41:40;19.88;;;17.98;;
44434;SDS011;30138;20.964;105.830;2022-08-02T10:46:50;19.73;;;17.80;;
44434;SDS011;30138;20.964;105.830;2022-08-02T10:52:14;20.10;;;17.92;;
44434;SDS011;30138;20.964;105.830;2022-08-02T10:57:23;19.77;;;17.80;;
44434;SDS011;30138;20.964;105.830;2022-08-02T11:02:36;19.55;;;17.65;;
44434;SDS011;30138;20.964;105.830;2022-08-02T11:07:48;18.73;;;16.92;;
44434;SDS011;30138;20.964;105.830;2022-08-02T11:13:00;19.90;;;17.83;;
44434;SDS011;30138;20.964;105.830;2022-08-02T11:18:11;18.85;;;16.75;;
44434;SDS011;30138;20.964;105.830;2022-08-02T11:23:37;19.35;;;17.35;;
44434;SDS011;30138;20.964;105.830;2022-08-02T11:28:48;18.35;;;16.50;;
44434;SDS011;30138;20.964;105.830;2022-08-02T11:33:55;18.80;;;16.90;;
44434;SDS011;30138;20.964;105.830;2022-08-02T11:39:11;18.67;;;16.70;;
44434;SDS011;30138;20.964;105.830;2022-08-02T11:44:21;18.65;;;16.75;;
44434;SDS011;30138;20.964;105.830;2022-08-02T11:49:29;23.02;;;17.73;;
44434;SDS011;30138;20.964;105.830;2022-08-02T11:54:39;20.75;;;18.40;;
44434;SDS011;30138;20.964;105.830;2022-08-02T11:59:49;19.85;;;17.75;;
44434;SDS011;30138;20.964;105.830;2022-08-02T12:04:59;19.38;;;16.67;;
44434;SDS011;30138;20.964;105.830;2022-08-02T12:10:13;19.97;;;17.87;;
44434;SDS011;30138;20.964;105.830;2022-08-02T12:15:28;18.98;;;17.00;;
44434;SDS011;30138;20.964;105.830;2022-08-02T12:20:42;18.90;;;17.00;;
44434;SDS011;30138;20.964;105.830;2022-08-02T12:26:01;20.35;;;17.17;;
44434;SDS011;30138;20.964;105.830;2022-08-02T12:31:10;21.57;;;16.80;;
44434;SDS011;30138;20.964;105.830;2022-08-02T12:36:19;21.20;;;16.70;;
44434;SDS011;30138;20.964;105.830;2022-08-02T12:41:32;18.65;;;16.75;;
44434;SDS011;30138;20.964;105.830;2022-08-02T12:46:40;19.90;;;17.58;;
44434;SDS011;30138;20.964;105.830;2022-08-02T12:56:59;22.05;;;17.90;;
44434;SDS011;30138;20.964;105.830;2022-08-02T13:02:16;20.73;;;17.05;;
44434;SDS011;30138;20.964;105.830;2022-08-02T13:07:24;19.73;;;17.33;;
44434;SDS011;30138;20.964;105.830;2022-08-02T13:12:34;20.42;;;18.20;;
44434;SDS011;30138;20.964;105.830;2022-08-02T13:17:41;22.35;;;17.65;;
44434;SDS011;30138;20.964;105.830;2022-08-02T13:22:49;20.20;;;17.25;;
44434;SDS011;30138;20.964;105.830;2022-08-02T13:27:59;18.55;;;16.33;;
44434;SDS011;30138;20.964;105.830;2022-08-02T13:33:09;21.13;;;16.48;;
44434;SDS011;30138;20.964;105.830;2022-08-02T13:38:17;25.70;;;16.23;;
44434;SDS011;30138;20.964;105.830;2022-08-02T13:43:27;18.80;;;15.43;;
44434;SDS011;30138;20.964;105.830;2022-08-02T13:48:35;21.17;;;16.37;;
44434;SDS011;30138;20.964;105.830;2022-08-02T13:53:43;19.25;;;15.55;;
44434;SDS011;30138;20.964;105.830;2022-08-02T13:58:53;22.02;;;15.10;;
44434;SDS011;30138;20.964;105.830;2022-08-02T14:04:01;19.80;;;15.10;;
44434;SDS011;30138;20.964;105.830;2022-08-02T14:09:09;19.20;;;14.98;;
44434;SDS011;30138;20.964;105.830;2022-08-02T14:14:19;18.25;;;13.20;;
44434;SDS011;30138;20.964;105.830;2022-08-02T14:19:27;24.30;;;13.10;;
44434;SDS011;30138;20.964;105.830;2022-08-02T14:24:35;19.20;;;12.73;;
44434;SDS011;30138;20.964;105.830;2022-08-02T14:29:45;21.50;;;13.63;;
44434;SDS011;30138;20.964;105.830;2022-08-02T14:34:53;23.80;;;13.70;;
44434;SDS011;30138;20.964;105.830;2022-08-02T14:40:01;23.55;;;13.82;;
44434;SDS011;30138;20.964;105.830;2022-08-02T14:45:13;26.05;;;15.43;;
44434;SDS011;30138;20.964;105.830;2022-08-02T14:50:23;19.98;;;15.02;;
44434;SDS011;30138;20.964;105.830;2022-08-02T14:55:30;25.40;;;17.10;;
44434;SDS011;30138;20.964;105.830;2022-08-02T15:00:40;32.38;;;16.85;;
44434;SDS011;30138;20.964;105.830;2022-08-02T15:05:48;28.77;;;18.33;;
44434;SDS011;30138;20.964;105.830;2022-08-02T15:10:56;28.48;;;18.92;;
44434;SDS011;30138;20.964;105.830;2022-08-02T15:16:09;27.20;;;19.70;;
44434;SDS011;30138;20.964;105.830;2022-08-02T15:21:17;29.95;;;19.52;;
44434;SDS011;30138;20.964;105.830;2022-08-02T15:26:25;34.22;;;20.08;;
44434;SDS011;30138;20.964;105.830;2022-08-02T15:31:34;29.77;;;20.08;;
44434;SDS011;30138;20.964;105.830;2022-08-02T15:36:42;24.95;;;18.33;;
44434;SDS011;30138;20.964;105.830;2022-08-02T15:41:50;30.02;;;20.35;;
44434;SDS011;30138;20.964;105.830;2022-08-02T15:47:00;30.40;;;20.23;;
44434;SDS011;30138;20.964;105.830;2022-08-02T15:52:10;26.90;;;19.42;;
44434;SDS011;30138;20.964;105.830;2022-08-02T15:57:19;29.95;;;18.50;;
44434;SDS011;30138;20.964;105.830;2022-08-02T16:02:28;31.83;;;17.83;;
44434;SDS011;30138;20.964;105.830;2022-08-02T16:07:36;25.90;;;17.98;;
44434;SDS011;30138;20.964;105.830;2022-08-02T16:12:44;26.52;;;19.70;;
44434;SDS011;30138;20.964;105.830;2022-08-02T16:17:54;25.23;;;19.08;;
44434;SDS011;30138;20.964;105.830;2022-08-02T16:23:02;27.23;;;19.85;;
44434;SDS011;30138;20.964;105.830;2022-08-02T16:28:13;32.83;;;20.97;;
44434;SDS011;30138;20.964;105.830;2022-08-02T16:33:23;31.58;;;21.77;;
44434;SDS011;30138;20.964;105.830;2022-08-02T16:38:31;32.85;;;21.98;;
44434;SDS011;30138;20.964;105.830;2022-08-02T16:43:38;31.15;;;21.83;;
44434;SDS011;30138;20.964;105.830;2022-08-02T16:48:49;31.00;;;21.08;;
44434;SDS011;30138;20.964;105.830;2022-08-02T16:59:03;33.60;;;20.60;;
44434;SDS011;30138;20.964;105.830;2022-08-02T17:04:13;33.33;;;19.95;;
44434;SDS011;30138;20.964;105.830;2022-08-02T17:09:21;29.63;;;18.55;;
44434;SDS011;30138;20.964;105.830;2022-08-02T17:14:28;31.42;;;18.10;;
44434;SDS011;30138;20.964;105.830;2022-08-02T17:19:40;28.77;;;17.45;;
44434;SDS011;30138;20.964;105.830;2022-08-02T17:24:48;27.05;;;16.80;;
44434;SDS011;30138;20.964;105.830;2022-08-02T17:29:57;28.90;;;17.08;;
44434;SDS011;30138;20.964;105.830;2022-08-02T17:35:07;23.50;;;16.50;;
44434;SDS011;30138;20.964;105.830;2022-08-02T17:40:15;30.58;;;16.42;;
44434;SDS011;30138;20.964;105.830;2022-08-02T17:45:23;28.45;;;16.75;;
44434;SDS011;30138;20.964;105.830;2022-08-02T17:50:32;25.40;;;15.65;;
44434;SDS011;30138;20.964;105.830;2022-08-02T17:55:40;25.95;;;16.52;;
44434;SDS011;30138;20.964;105.830;2022-08-02T18:00:48;25.92;;;15.90;;
44434;SDS011;30138;20.964;105.830;2022-08-02T18:05:59;25.65;;;16.65;;
44434;SDS011;30138;20.964;105.830;2022-08-02T18:11:08;27.70;;;15.77;;
44434;SDS011;30138;20.964;105.830;2022-08-02T18:16:15;30.92;;;16.17;;
44434;SDS011;30138;20.964;105.830;2022-08-02T18:21:25;26.35;;;16.10;;
44434;SDS011;30138;20.964;105.830;2022-08-02T18:26:33;32.60;;;16.43;;
44434;SDS011;30138;20.964;105.830;2022-08-02T18:31:42;28.10;;;16.67;;
44434;SDS011;30138;20.964;105.830;2022-08-02T18:36:52;24.33;;;16.08;;
44434;SDS011;30138;20.964;105.830;2022-08-02T18:41:59;26.13;;;17.80;;
44434;SDS011;30138;20.964;105.830;2022-08-02T18:47:07;28.60;;;17.42;;
44434;SDS011;30138;20.964;105.830;2022-08-02T18:52:17;29.05;;;18.10;;
44434;SDS011;30138;20.964;105.830;2022-08-02T18:57:25;26.37;;;17.70;;
44434;SDS011;30138;20.964;105.830;2022-08-02T19:02:34;31.48;;;18.55;;
44434;SDS011;30138;20.964;105.830;2022-08-02T19:07:43;29.13;;;18.17;;
44434;SDS011;30138;20.964;105.830;2022-08-02T19:12:51;26.30;;;17.65;;
44434;SDS011;30138;20.964;105.830;2022-08-02T19:17:58;27.35;;;18.48;;
44434;SDS011;30138;20.964;105.830;2022-08-02T19:23:08;29.13;;;17.60;;
44434;SDS011;30138;20.964;105.830;2022-08-02T19:28:15;27.88;;;17.50;;
44434;SDS011;30138;20.964;105.830;2022-08-02T19:33:23;24.65;;;17.85;;
44434;SDS011;30138;20.964;105.830;2022-08-02T19:38:33;29.35;;;18.45;;
44434;SDS011;30138;20.964;105.830;2022-08-02T19:43:42;28.33;;;18.80;;
44434;SDS011;30138;20.964;105.830;2022-08-02T19:48:50;27.23;;;18.63;;
44434;SDS011;30138;20.964;105.830;2022-08-02T19:54:00;27.65;;;18.02;;
44434;SDS011;30138;20.964;105.830;2022-08-02T19:59:07;30.27;;;19.05;;
44434;SDS011;30138;20.964;105.830;2022-08-02T20:04:15;32.17;;;19.17;;
44434;SDS011;30138;20.964;105.830;2022-08-02T20:09:25;31.20;;;19.23;;
44434;SDS011;30138;20.964;105.830;2022-08-02T20:14:33;28.60;;;18.55;;
44434;SDS011;30138;20.964;105.830;2022-08-02T20:19:41;28.60;;;19.20;;
44434;SDS011;30138;20.964;105.830;2022-08-02T20:24:51;27.98;;;18.73;;
44434;SDS011;30138;20.964;105.830;2022-08-02T20:29:59;30.58;;;19.58;;
44434;SDS011;30138;20.964;105.830;2022-08-02T20:35:06;30.52;;;18.27;;
44434;SDS011;30138;20.964;105.830;2022-08-02T20:40:16;27.30;;;17.38;;
44434;SDS011;30138;20.964;105.830;2022-08-02T20:45:24;31.88;;;18.38;;
44434;SDS011;30138;20.964;105.830;2022-08-02T20:50:32;30.63;;;19.13;;
44434;SDS011;30138;20.964;105.830;2022-08-02T20:55:54;31.00;;;18.63;;
44434;SDS011;30138;20.964;105.830;2022-08-02T21:01:05;28.58;;;18.27;;
44434;SDS011;30138;20.964;105.830;2022-08-02T21:06:13;33.20;;;19.13;;
44434;SDS011;30138;20.964;105.830;2022-08-02T21:11:23;26.75;;;17.63;;
44434;SDS011;30138;20.964;105.830;2022-08-02T21:16:30;28.98;;;18.95;;
44434;SDS011;30138;20.964;105.830;2022-08-02T21:21:38;34.85;;;20.00;;
44434;SDS011;30138;20.964;105.830;2022-08-02T21:26:48;30.48;;;18.88;;
44434;SDS011;30138;20.964;105.830;2022-08-02T21:31:56;35.90;;;18.50;;
44434;SDS011;30138;20.964;105.830;2022-08-02T21:37:04;34.90;;;18.80;;
44434;SDS011;30138;20.964;105.830;2022-08-02T21:42:14;31.70;;;19.02;;
44434;SDS011;30138;20.964;105.830;2022-08-02T21:47:22;36.40;;;19.20;;
44434;SDS011;30138;20.964;105.830;2022-08-02T21:52:29;35.47;;;19.20;;
44434;SDS011;30138;20.964;105.830;2022-08-02T21:57:40;33.58;;;19.98;;
44434;SDS011;30138;20.964;105.830;2022-08-02T22:02:48;32.15;;;19.60;;
44434;SDS011;30138;20.964;105.830;2022-08-02T22:07:56;34.45;;;20.35;;
44434;SDS011;30138;20.964;105.830;2022-08-02T22:13:06;30.65;;;20.90;;
44434;SDS011;30138;20.964;105.830;2022-08-02T22:18:14;41.17;;;24.02;;
44434;SDS011;30138;20.964;105.830;2022-08-02T22:23:22;41.65;;;26.25;;
44434;SDS011;30138;20.964;105.830;2022-08-02T22:28:32;41.72;;;25.58;;
44434;SDS011;30138;20.964;105.830;2022-08-02T22:33:40;43.13;;;27.13;;
44434;SDS011;30138;20.964;105.830;2022-08-02T22:39:03;44.53;;;26.15;;
44434;SDS011;30138;20.964;105.830;2022-08-02T22:44:17;40.47;;;24.92;;
44434;SDS011;30138;20.964;105.830;2022-08-02T22:49:24;41.50;;;24.42;;
44434;SDS011;30138;20.964;105.830;2022-08-02T22:54:31;32.30;;;22.48;;
44434;SDS011;30138;20.964;105.830;2022-08-02T22:59:41;34.78;;;21.98;;
44434;SDS011;30138;20.964;105.830;2022-08-02T23:04:49;40.88;;;22.75;;
44434;SDS011;30138;20.964;105.830;2022-08-02T23:09:57;37.70;;;22.15;;
44434;SDS011;30138;20.964;105.830;2022-08-02T23:15:09;37.08;;;21.55;;
44434;SDS011;30138;20.964;105.830;2022-08-02T23:25:23;34.40;;;21.77;;
44434;SDS011;30138;20.964;105.830;2022-08-02T23:30:33;37.97;;;21.98;;
44434;SDS011;30138;20.964;105.830;2022-08-02T23:35:40;32.97;;;19.92;;
44434;SDS011;30138;20.964;105.830;2022-08-02T23:40:48;38.17;;;21.50;;
44434;SDS011;30138;20.964;105.830;2022-08-02T23:46:01;37.85;;;21.70;;
44434;SDS011;30138;20.964;105.830;2022-08-02T23:51:10;40.78;;;22.45;;
44434;SDS011;30138;20.964;105.830;2022-08-02T23:56:19;42.83;;;21.70;;
